KCHK/CHK METAR and TAF weather

Enter ICAO airport designator
Station Type Date Time Source
KCHK METAR 2020/01/20 16:15 UTC NOAA

KCHK 201615Z AUTO 14006KT 10SM CLR 01/M05 A3057 RMK AO2 T00081053


Station Type Date Time Source
KCHK Decoded METAR 2020/01/20 16:15 UTC NOAA

Chickasha, Chickasha Municipal Airport, OK, United States (KCHK) 35-05-46N 097-57-58W
Jan 20, 2020 - 11:15 AM EST / 2020.01.20 1615 UTC
Wind: from the SE (140 degrees) at 7 MPH (6 KT):0
Visibility: 10 mile(s):0
Sky conditions: clear
Temperature: 33.4 F (0.8 C)
Windchill: 26 F (-3 C):1
Dew Point: 22.5 F (-5.3 C)
Relative Humidity: 63%
Pressure (altimeter): 30.57 in. Hg (1035 hPa)
ob: KCHK 201615Z AUTO 14006KT 10SM CLR 01/M05 A3057 RMK AO2 T00081053
cycle: 16

Station Type Date Time Source
KCHK TAF UTC NOAA

Error!

Example: see airport list